sensor_id;sensor_type;location;lat;lon;timestamp;P1;durP1;ratioP1;P2;durP2;ratioP2
15159;SDS011;7680;48.800;9.680;2023-04-25T00:01:47;3.93;;;3.63;;
15159;SDS011;7680;48.800;9.680;2023-04-25T00:04:20;3.70;;;3.40;;
15159;SDS011;7680;48.800;9.680;2023-04-25T00:06:53;4.00;;;3.80;;
15159;SDS011;7680;48.800;9.680;2023-04-25T00:09:27;4.47;;;4.07;;
15159;SDS011;7680;48.800;9.680;2023-04-25T00:12:00;3.90;;;3.60;;
15159;SDS011;7680;48.800;9.680;2023-04-25T00:14:33;3.70;;;3.40;;
15159;SDS011;7680;48.800;9.680;2023-04-25T00:17:08;3.77;;;3.57;;
15159;SDS011;7680;48.800;9.680;2023-04-25T00:19:42;3.80;;;3.50;;
15159;SDS011;7680;48.800;9.680;2023-04-25T00:22:17;3.47;;;3.27;;
15159;SDS011;7680;48.800;9.680;2023-04-25T00:24:50;4.60;;;4.30;;
15159;SDS011;7680;48.800;9.680;2023-04-25T00:27:24;4.00;;;3.70;;
15159;SDS011;7680;48.800;9.680;2023-04-25T00:29:57;4.13;;;3.83;;
15159;SDS011;7680;48.800;9.680;2023-04-25T00:32:32;3.90;;;3.60;;
15159;SDS011;7680;48.800;9.680;2023-04-25T00:35:05;4.00;;;3.70;;
15159;SDS011;7680;48.800;9.680;2023-04-25T00:37:39;4.37;;;4.07;;
15159;SDS011;7680;48.800;9.680;2023-04-25T00:40:12;3.63;;;3.43;;
15159;SDS011;7680;48.800;9.680;2023-04-25T00:42:45;3.97;;;3.77;;
15159;SDS011;7680;48.800;9.680;2023-04-25T00:45:19;4.03;;;3.83;;
15159;SDS011;7680;48.800;9.680;2023-04-25T00:47:54;4.27;;;3.97;;
15159;SDS011;7680;48.800;9.680;2023-04-25T00:50:28;3.70;;;3.40;;
15159;SDS011;7680;48.800;9.680;2023-04-25T00:53:01;4.27;;;3.97;;
15159;SDS011;7680;48.800;9.680;2023-04-25T00:55:35;3.63;;;3.43;;
15159;SDS011;7680;48.800;9.680;2023-04-25T00:58:08;4.27;;;3.87;;
15159;SDS011;7680;48.800;9.680;2023-04-25T01:00:41;4.43;;;4.13;;
15159;SDS011;7680;48.800;9.680;2023-04-25T01:03:16;3.87;;;3.57;;
15159;SDS011;7680;48.800;9.680;2023-04-25T01:05:51;4.23;;;3.83;;
15159;SDS011;7680;48.800;9.680;2023-04-25T01:08:24;3.87;;;3.57;;
15159;SDS011;7680;48.800;9.680;2023-04-25T01:10:57;4.00;;;3.70;;
15159;SDS011;7680;48.800;9.680;2023-04-25T01:13:30;3.63;;;3.43;;
15159;SDS011;7680;48.800;9.680;2023-04-25T01:16:04;4.23;;;3.93;;
15159;SDS011;7680;48.800;9.680;2023-04-25T01:18:39;3.90;;;3.60;;
15159;SDS011;7680;48.800;9.680;2023-04-25T01:21:15;3.60;;;3.30;;
15159;SDS011;7680;48.800;9.680;2023-04-25T01:23:48;3.90;;;3.60;;
15159;SDS011;7680;48.800;9.680;2023-04-25T01:26:23;4.03;;;3.73;;
15159;SDS011;7680;48.800;9.680;2023-04-25T01:28:57;3.97;;;3.73;;
15159;SDS011;7680;48.800;9.680;2023-04-25T01:31:31;4.00;;;3.80;;
15159;SDS011;7680;48.800;9.680;2023-04-25T01:34:06;4.10;;;3.70;;
15159;SDS011;7680;48.800;9.680;2023-04-25T01:36:40;4.40;;;4.00;;
15159;SDS011;7680;48.800;9.680;2023-04-25T01:39:13;4.10;;;3.80;;
15159;SDS011;7680;48.800;9.680;2023-04-25T01:41:47;4.23;;;3.93;;
15159;SDS011;7680;48.800;9.680;2023-04-25T01:44:20;4.03;;;3.73;;
15159;SDS011;7680;48.800;9.680;2023-04-25T01:46:54;4.17;;;3.77;;
15159;SDS011;7680;48.800;9.680;2023-04-25T01:49:27;4.07;;;3.87;;
15159;SDS011;7680;48.800;9.680;2023-04-25T01:52:01;3.93;;;3.47;;
15159;SDS011;7680;48.800;9.680;2023-04-25T01:54:34;4.90;;;4.53;;
15159;SDS011;7680;48.800;9.680;2023-04-25T01:57:07;4.00;;;3.70;;
15159;SDS011;7680;48.800;9.680;2023-04-25T01:59:41;4.03;;;3.73;;
15159;SDS011;7680;48.800;9.680;2023-04-25T02:02:15;4.20;;;3.77;;
15159;SDS011;7680;48.800;9.680;2023-04-25T02:04:48;4.10;;;3.80;;
15159;SDS011;7680;48.800;9.680;2023-04-25T02:07:23;3.90;;;3.70;;
15159;SDS011;7680;48.800;9.680;2023-04-25T02:09:56;3.93;;;3.70;;
15159;SDS011;7680;48.800;9.680;2023-04-25T02:12:29;3.77;;;3.53;;
15159;SDS011;7680;48.800;9.680;2023-04-25T02:15:03;4.20;;;3.80;;
15159;SDS011;7680;48.800;9.680;2023-04-25T02:17:38;4.07;;;3.77;;
15159;SDS011;7680;48.800;9.680;2023-04-25T02:20:11;3.87;;;3.43;;
15159;SDS011;7680;48.800;9.680;2023-04-25T02:22:45;4.10;;;3.90;;
15159;SDS011;7680;48.800;9.680;2023-04-25T02:25:19;4.57;;;4.00;;
15159;SDS011;7680;48.800;9.680;2023-04-25T02:27:52;4.13;;;3.83;;
15159;SDS011;7680;48.800;9.680;2023-04-25T02:30:25;3.93;;;3.63;;
15159;SDS011;7680;48.800;9.680;2023-04-25T02:32:59;3.60;;;3.40;;
15159;SDS011;7680;48.800;9.680;2023-04-25T02:35:32;4.87;;;4.23;;
15159;SDS011;7680;48.800;9.680;2023-04-25T02:38:07;4.23;;;3.93;;
15159;SDS011;7680;48.800;9.680;2023-04-25T02:40:40;4.20;;;4.00;;
15159;SDS011;7680;48.800;9.680;2023-04-25T02:43:13;4.27;;;3.97;;
15159;SDS011;7680;48.800;9.680;2023-04-25T02:45:47;4.20;;;3.90;;
15159;SDS011;7680;48.800;9.680;2023-04-25T02:48:20;4.50;;;4.20;;
15159;SDS011;7680;48.800;9.680;2023-04-25T02:50:53;4.57;;;4.20;;
15159;SDS011;7680;48.800;9.680;2023-04-25T02:53:27;4.60;;;4.20;;
15159;SDS011;7680;48.800;9.680;2023-04-25T02:56:00;4.83;;;4.53;;
15159;SDS011;7680;48.800;9.680;2023-04-25T02:58:33;4.53;;;4.20;;
15159;SDS011;7680;48.800;9.680;2023-04-25T03:01:06;5.10;;;4.70;;
15159;SDS011;7680;48.800;9.680;2023-04-25T03:03:40;4.90;;;4.57;;
15159;SDS011;7680;48.800;9.680;2023-04-25T03:06:13;5.00;;;4.70;;
15159;SDS011;7680;48.800;9.680;2023-04-25T03:08:48;5.00;;;4.60;;
15159;SDS011;7680;48.800;9.680;2023-04-25T03:11:21;5.03;;;4.53;;
15159;SDS011;7680;48.800;9.680;2023-04-25T03:13:54;5.03;;;4.67;;
15159;SDS011;7680;48.800;9.680;2023-04-25T03:16:27;5.43;;;5.03;;
15159;SDS011;7680;48.800;9.680;2023-04-25T03:19:01;5.50;;;5.10;;
15159;SDS011;7680;48.800;9.680;2023-04-25T03:21:35;5.33;;;4.93;;
15159;SDS011;7680;48.800;9.680;2023-04-25T03:24:09;5.50;;;5.00;;
15159;SDS011;7680;48.800;9.680;2023-04-25T03:26:43;5.90;;;5.50;;
15159;SDS011;7680;48.800;9.680;2023-04-25T03:29:16;5.30;;;4.90;;
15159;SDS011;7680;48.800;9.680;2023-04-25T03:31:49;5.90;;;5.17;;
15159;SDS011;7680;48.800;9.680;2023-04-25T03:34:22;5.63;;;5.10;;
15159;SDS011;7680;48.800;9.680;2023-04-25T03:36:57;4.83;;;4.43;;
15159;SDS011;7680;48.800;9.680;2023-04-25T03:39:31;4.60;;;4.20;;
15159;SDS011;7680;48.800;9.680;2023-04-25T03:42:04;4.50;;;4.20;;
15159;SDS011;7680;48.800;9.680;2023-04-25T03:44:37;4.80;;;4.50;;
15159;SDS011;7680;48.800;9.680;2023-04-25T03:47:11;4.60;;;4.30;;
15159;SDS011;7680;48.800;9.680;2023-04-25T03:49:44;4.60;;;4.33;;
15159;SDS011;7680;48.800;9.680;2023-04-25T03:52:17;4.83;;;4.43;;
15159;SDS011;7680;48.800;9.680;2023-04-25T03:54:51;5.60;;;5.20;;
15159;SDS011;7680;48.800;9.680;2023-04-25T03:57:24;4.93;;;4.63;;
15159;SDS011;7680;48.800;9.680;2023-04-25T03:59:57;5.20;;;4.80;;
15159;SDS011;7680;48.800;9.680;2023-04-25T04:02:30;5.00;;;4.60;;
15159;SDS011;7680;48.800;9.680;2023-04-25T04:05:06;4.60;;;4.17;;
15159;SDS011;7680;48.800;9.680;2023-04-25T04:07:39;4.70;;;4.37;;
15159;SDS011;7680;48.800;9.680;2023-04-25T04:10:15;5.17;;;4.80;;
15159;SDS011;7680;48.800;9.680;2023-04-25T04:12:48;4.70;;;4.40;;
15159;SDS011;7680;48.800;9.680;2023-04-25T04:15:21;5.63;;;5.13;;
15159;SDS011;7680;48.800;9.680;2023-04-25T04:17:54;4.77;;;4.43;;
15159;SDS011;7680;48.800;9.680;2023-04-25T04:20:27;6.20;;;5.17;;
15159;SDS011;7680;48.800;9.680;2023-04-25T04:23:01;4.53;;;4.23;;
15159;SDS011;7680;48.800;9.680;2023-04-25T04:25:35;4.73;;;4.20;;
15159;SDS011;7680;48.800;9.680;2023-04-25T04:28:08;4.83;;;4.43;;
15159;SDS011;7680;48.800;9.680;2023-04-25T04:30:42;4.67;;;4.30;;
15159;SDS011;7680;48.800;9.680;2023-04-25T04:33:18;4.53;;;4.20;;
15159;SDS011;7680;48.800;9.680;2023-04-25T04:35:51;4.70;;;4.40;;
15159;SDS011;7680;48.800;9.680;2023-04-25T04:38:26;4.97;;;4.57;;
15159;SDS011;7680;48.800;9.680;2023-04-25T04:41:01;5.33;;;4.93;;
15159;SDS011;7680;48.800;9.680;2023-04-25T04:43:34;5.07;;;4.60;;
15159;SDS011;7680;48.800;9.680;2023-04-25T04:46:07;4.63;;;4.33;;
15159;SDS011;7680;48.800;9.680;2023-04-25T04:48:41;4.73;;;4.33;;
15159;SDS011;7680;48.800;9.680;2023-04-25T04:51:15;6.47;;;5.97;;
15159;SDS011;7680;48.800;9.680;2023-04-25T04:53:48;5.90;;;5.40;;
15159;SDS011;7680;48.800;9.680;2023-04-25T04:56:23;6.60;;;5.70;;
15159;SDS011;7680;48.800;9.680;2023-04-25T04:58:56;6.00;;;5.50;;
15159;SDS011;7680;48.800;9.680;2023-04-25T05:01:29;5.77;;;5.17;;
15159;SDS011;7680;48.800;9.680;2023-04-25T05:04:03;5.30;;;4.90;;
15159;SDS011;7680;48.800;9.680;2023-04-25T05:06:36;5.37;;;4.97;;
15159;SDS011;7680;48.800;9.680;2023-04-25T05:09:10;6.07;;;5.57;;
15159;SDS011;7680;48.800;9.680;2023-04-25T05:11:44;6.73;;;6.03;;
15159;SDS011;7680;48.800;9.680;2023-04-25T05:14:17;6.33;;;5.83;;
15159;SDS011;7680;48.800;9.680;2023-04-25T05:16:50;6.63;;;6.10;;
15159;SDS011;7680;48.800;9.680;2023-04-25T05:19:23;6.47;;;5.97;;
15159;SDS011;7680;48.800;9.680;2023-04-25T05:21:56;6.63;;;5.97;;
15159;SDS011;7680;48.800;9.680;2023-04-25T05:24:29;6.30;;;5.83;;
15159;SDS011;7680;48.800;9.680;2023-04-25T05:27:04;7.23;;;6.63;;
15159;SDS011;7680;48.800;9.680;2023-04-25T05:29:37;9.63;;;8.37;;
15159;SDS011;7680;48.800;9.680;2023-04-25T05:32:10;51.13;;;34.37;;
15159;SDS011;7680;48.800;9.680;2023-04-25T05:34:43;39.23;;;27.67;;
15159;SDS011;7680;48.800;9.680;2023-04-25T05:37:16;25.13;;;17.90;;
15159;SDS011;7680;48.800;9.680;2023-04-25T05:39:49;19.50;;;16.57;;
15159;SDS011;7680;48.800;9.680;2023-04-25T05:42:24;19.37;;;15.40;;
15159;SDS011;7680;48.800;9.680;2023-04-25T05:44:57;12.77;;;11.47;;
15159;SDS011;7680;48.800;9.680;2023-04-25T05:47:30;11.77;;;10.50;;
15159;SDS011;7680;48.800;9.680;2023-04-25T05:50:03;8.83;;;7.93;;
15159;SDS011;7680;48.800;9.680;2023-04-25T05:52:38;7.53;;;6.93;;
15159;SDS011;7680;48.800;9.680;2023-04-25T05:55:11;7.47;;;6.63;;
15159;SDS011;7680;48.800;9.680;2023-04-25T05:57:46;7.20;;;6.70;;
15159;SDS011;7680;48.800;9.680;2023-04-25T06:00:21;7.50;;;6.80;;
15159;SDS011;7680;48.800;9.680;2023-04-25T06:02:55;6.20;;;5.80;;
15159;SDS011;7680;48.800;9.680;2023-04-25T06:05:28;5.80;;;5.40;;
15159;SDS011;7680;48.800;9.680;2023-04-25T06:08:01;7.07;;;6.53;;
15159;SDS011;7680;48.800;9.680;2023-04-25T06:10:35;6.50;;;6.00;;
15159;SDS011;7680;48.800;9.680;2023-04-25T06:13:10;7.17;;;6.67;;
15159;SDS011;7680;48.800;9.680;2023-04-25T06:15:42;6.70;;;6.20;;
15159;SDS011;7680;48.800;9.680;2023-04-25T06:18:16;7.53;;;6.90;;
15159;SDS011;7680;48.800;9.680;2023-04-25T06:20:49;6.67;;;6.07;;
15159;SDS011;7680;48.800;9.680;2023-04-25T06:23:22;7.40;;;6.70;;
15159;SDS011;7680;48.800;9.680;2023-04-25T06:25:55;6.72;;;6.20;;
15159;SDS011;7680;48.800;9.680;2023-04-25T06:28:29;6.30;;;5.63;;
15159;SDS011;7680;48.800;9.680;2023-04-25T06:31:02;6.33;;;5.73;;
15159;SDS011;7680;48.800;9.680;2023-04-25T06:33:35;7.53;;;6.72;;
15159;SDS011;7680;48.800;9.680;2023-04-25T06:36:09;6.57;;;5.93;;
15159;SDS011;7680;48.800;9.680;2023-04-25T06:38:42;5.87;;;5.47;;
15159;SDS011;7680;48.800;9.680;2023-04-25T06:41:15;6.23;;;5.63;;
15159;SDS011;7680;48.800;9.680;2023-04-25T06:43:49;6.18;;;5.20;;
15159;SDS011;7680;48.800;9.680;2023-04-25T06:46:22;6.32;;;5.80;;
15159;SDS011;7680;48.800;9.680;2023-04-25T06:48:55;6.45;;;5.95;;
15159;SDS011;7680;48.800;9.680;2023-04-25T06:51:28;7.22;;;5.38;;
15159;SDS011;7680;48.800;9.680;2023-04-25T06:54:02;6.13;;;5.72;;
15159;SDS011;7680;48.800;9.680;2023-04-25T06:56:36;6.00;;;5.55;;
15159;SDS011;7680;48.800;9.680;2023-04-25T06:59:11;5.68;;;5.20;;
15159;SDS011;7680;48.800;9.680;2023-04-25T07:01:44;5.55;;;5.05;;
15159;SDS011;7680;48.800;9.680;2023-04-25T07:04:17;6.22;;;5.72;;
15159;SDS011;7680;48.800;9.680;2023-04-25T07:06:51;6.63;;;6.03;;
15159;SDS011;7680;48.800;9.680;2023-04-25T07:09:24;6.10;;;5.70;;
15159;SDS011;7680;48.800;9.680;2023-04-25T07:11:57;6.47;;;5.97;;
15159;SDS011;7680;48.800;9.680;2023-04-25T07:14:31;6.18;;;5.60;;
15159;SDS011;7680;48.800;9.680;2023-04-25T07:17:04;6.07;;;5.65;;
15159;SDS011;7680;48.800;9.680;2023-04-25T07:19:38;5.85;;;5.45;;
15159;SDS011;7680;48.800;9.680;2023-04-25T07:22:11;5.60;;;5.10;;
15159;SDS011;7680;48.800;9.680;2023-04-25T07:24:44;5.40;;;5.00;;
15159;SDS011;7680;48.800;9.680;2023-04-25T07:27:19;6.63;;;6.03;;
15159;SDS011;7680;48.800;9.680;2023-04-25T07:29:54;5.32;;;4.93;;
15159;SDS011;7680;48.800;9.680;2023-04-25T07:32:27;5.05;;;4.63;;
15159;SDS011;7680;48.800;9.680;2023-04-25T07:35:00;5.35;;;4.95;;
15159;SDS011;7680;48.800;9.680;2023-04-25T07:37:34;4.90;;;4.60;;
15159;SDS011;7680;48.800;9.680;2023-04-25T07:40:08;4.82;;;4.43;;
15159;SDS011;7680;48.800;9.680;2023-04-25T07:42:42;4.45;;;4.05;;
15159;SDS011;7680;48.800;9.680;2023-04-25T07:45:17;3.50;;;3.30;;
15159;SDS011;7680;48.800;9.680;2023-04-25T07:47:50;3.83;;;3.53;;
15159;SDS011;7680;48.800;9.680;2023-04-25T07:50:23;3.97;;;3.78;;
15159;SDS011;7680;48.800;9.680;2023-04-25T07:52:56;8.80;;;7.88;;
15159;SDS011;7680;48.800;9.680;2023-04-25T07:55:29;4.63;;;4.32;;
15159;SDS011;7680;48.800;9.680;2023-04-25T07:58:02;4.45;;;4.15;;
15159;SDS011;7680;48.800;9.680;2023-04-25T08:00:36;4.03;;;3.72;;
15159;SDS011;7680;48.800;9.680;2023-04-25T08:03:10;3.30;;;3.10;;
15159;SDS011;7680;48.800;9.680;2023-04-25T08:05:43;3.50;;;3.30;;
15159;SDS011;7680;48.800;9.680;2023-04-25T08:08:17;3.55;;;3.35;;
15159;SDS011;7680;48.800;9.680;2023-04-25T08:10:50;3.60;;;3.40;;
15159;SDS011;7680;48.800;9.680;2023-04-25T08:13:23;3.55;;;3.35;;
15159;SDS011;7680;48.800;9.680;2023-04-25T08:15:57;3.72;;;3.42;;
15159;SDS011;7680;48.800;9.680;2023-04-25T08:18:30;3.90;;;3.60;;
15159;SDS011;7680;48.800;9.680;2023-04-25T08:21:03;3.60;;;3.40;;
15159;SDS011;7680;48.800;9.680;2023-04-25T08:23:37;3.90;;;3.60;;
15159;SDS011;7680;48.800;9.680;2023-04-25T08:26:11;3.53;;;3.33;;
15159;SDS011;7680;48.800;9.680;2023-04-25T08:28:44;3.80;;;3.60;;
15159;SDS011;7680;48.800;9.680;2023-04-25T08:31:20;3.55;;;3.35;;
15159;SDS011;7680;48.800;9.680;2023-04-25T08:33:53;3.90;;;3.70;;
15159;SDS011;7680;48.800;9.680;2023-04-25T08:36:26;4.05;;;3.85;;
15159;SDS011;7680;48.800;9.680;2023-04-25T08:39:03;4.13;;;3.83;;
15159;SDS011;7680;48.800;9.680;2023-04-25T08:41:36;4.05;;;3.75;;
15159;SDS011;7680;48.800;9.680;2023-04-25T08:44:10;4.25;;;3.97;;
15159;SDS011;7680;48.800;9.680;2023-04-25T08:46:45;4.32;;;4.00;;
15159;SDS011;7680;48.800;9.680;2023-04-25T08:49:21;4.03;;;3.72;;
15159;SDS011;7680;48.800;9.680;2023-04-25T08:51:55;5.03;;;4.72;;
15159;SDS011;7680;48.800;9.680;2023-04-25T08:54:32;6.10;;;5.60;;
15159;SDS011;7680;48.800;9.680;2023-04-25T08:57:07;5.93;;;5.53;;
15159;SDS011;7680;48.800;9.680;2023-04-25T08:59:40;5.85;;;5.45;;
15159;SDS011;7680;48.800;9.680;2023-04-25T09:02:18;5.68;;;5.28;;
15159;SDS011;7680;48.800;9.680;2023-04-25T09:04:52;5.85;;;5.45;;
15159;SDS011;7680;48.800;9.680;2023-04-25T09:07:27;4.95;;;4.55;;
15159;SDS011;7680;48.800;9.680;2023-04-25T09:10:00;4.78;;;4.47;;
15159;SDS011;7680;48.800;9.680;2023-04-25T09:12:35;4.82;;;4.43;;
15159;SDS011;7680;48.800;9.680;2023-04-25T09:15:09;6.32;;;5.80;;
15159;SDS011;7680;48.800;9.680;2023-04-25T09:17:56;6.55;;;5.85;;
15159;SDS011;7680;48.800;9.680;2023-04-25T09:20:29;6.15;;;5.75;;
15159;SDS011;7680;48.800;9.680;2023-04-25T09:23:05;6.78;;;6.18;;
15159;SDS011;7680;48.800;9.680;2023-04-25T09:25:38;6.70;;;6.10;;
15159;SDS011;7680;48.800;9.680;2023-04-25T09:28:11;6.03;;;5.53;;
15159;SDS011;7680;48.800;9.680;2023-04-25T09:30:45;6.43;;;5.95;;
15159;SDS011;7680;48.800;9.680;2023-04-25T09:33:20;6.53;;;6.03;;
15159;SDS011;7680;48.800;9.680;2023-04-25T09:36:01;6.55;;;5.97;;
15159;SDS011;7680;48.800;9.680;2023-04-25T09:38:40;6.53;;;6.03;;
15159;SDS011;7680;48.800;9.680;2023-04-25T09:41:15;6.60;;;6.00;;
15159;SDS011;7680;48.800;9.680;2023-04-25T09:43:56;6.63;;;5.50;;
15159;SDS011;7680;48.800;9.680;2023-04-25T09:46:33;6.40;;;5.80;;
15159;SDS011;7680;48.800;9.680;2023-04-25T09:49:09;5.95;;;5.43;;
15159;SDS011;7680;48.800;9.680;2023-04-25T09:51:42;11.13;;;10.13;;
15159;SDS011;7680;48.800;9.680;2023-04-25T09:54:26;9.40;;;8.70;;
15159;SDS011;7680;48.800;9.680;2023-04-25T09:56:59;9.95;;;9.15;;
15159;SDS011;7680;48.800;9.680;2023-04-25T09:59:44;9.32;;;8.63;;
15159;SDS011;7680;48.800;9.680;2023-04-25T10:02:18;8.82;;;8.23;;
15159;SDS011;7680;48.800;9.680;2023-04-25T10:04:55;9.73;;;8.93;;
15159;SDS011;7680;48.800;9.680;2023-04-25T10:07:29;9.27;;;8.48;;
15159;SDS011;7680;48.800;9.680;2023-04-25T10:10:04;9.55;;;8.75;;
15159;SDS011;7680;48.800;9.680;2023-04-25T10:12:38;9.32;;;8.52;;
15159;SDS011;7680;48.800;9.680;2023-04-25T10:15:14;8.82;;;8.13;;
15159;SDS011;7680;48.800;9.680;2023-04-25T10:17:48;8.63;;;7.93;;
15159;SDS011;7680;48.800;9.680;2023-04-25T10:20:24;8.57;;;7.88;;
15159;SDS011;7680;48.800;9.680;2023-04-25T10:22:58;8.52;;;7.85;;
15159;SDS011;7680;48.800;9.680;2023-04-25T10:25:41;8.25;;;7.55;;
15159;SDS011;7680;48.800;9.680;2023-04-25T10:28:14;7.82;;;7.15;;
15159;SDS011;7680;48.800;9.680;2023-04-25T10:30:57;7.22;;;6.70;;
15159;SDS011;7680;48.800;9.680;2023-04-25T10:33:35;6.70;;;6.20;;
15159;SDS011;7680;48.800;9.680;2023-04-25T10:36:11;6.88;;;6.35;;
15159;SDS011;7680;48.800;9.680;2023-04-25T10:38:47;6.25;;;5.85;;
15159;SDS011;7680;48.800;9.680;2023-04-25T10:41:22;5.00;;;4.60;;
15159;SDS011;7680;48.800;9.680;2023-04-25T10:43:58;5.18;;;4.88;;
15159;SDS011;7680;48.800;9.680;2023-04-25T10:46:33;4.70;;;4.40;;
15159;SDS011;7680;48.800;9.680;2023-04-25T10:49:07;4.18;;;3.78;;
15159;SDS011;7680;48.800;9.680;2023-04-25T10:51:45;4.38;;;3.97;;
15159;SDS011;7680;48.800;9.680;2023-04-25T10:54:25;5.10;;;4.70;;
15159;SDS011;7680;48.800;9.680;2023-04-25T10:56:59;4.60;;;4.30;;
15159;SDS011;7680;48.800;9.680;2023-04-25T10:59:33;5.60;;;5.10;;
15159;SDS011;7680;48.800;9.680;2023-04-25T11:02:11;5.87;;;5.37;;
15159;SDS011;7680;48.800;9.680;2023-04-25T11:04:45;7.00;;;6.40;;
15159;SDS011;7680;48.800;9.680;2023-04-25T11:07:22;7.23;;;6.63;;
15159;SDS011;7680;48.800;9.680;2023-04-25T11:10:04;6.10;;;5.60;;
15159;SDS011;7680;48.800;9.680;2023-04-25T11:12:39;5.83;;;4.63;;
15159;SDS011;7680;48.800;9.680;2023-04-25T11:15:12;8.00;;;7.20;;
15159;SDS011;7680;48.800;9.680;2023-04-25T11:17:45;10.10;;;9.30;;
15159;SDS011;7680;48.800;9.680;2023-04-25T11:20:18;9.73;;;8.90;;
15159;SDS011;7680;48.800;9.680;2023-04-25T11:22:53;10.63;;;9.63;;
15159;SDS011;7680;48.800;9.680;2023-04-25T11:25:29;18.03;;;16.47;;
15159;SDS011;7680;48.800;9.680;2023-04-25T11:28:03;10.60;;;9.70;;
15159;SDS011;7680;48.800;9.680;2023-04-25T11:30:36;10.30;;;9.27;;
15159;SDS011;7680;48.800;9.680;2023-04-25T11:33:10;9.83;;;8.87;;
15159;SDS011;7680;48.800;9.680;2023-04-25T11:35:43;9.93;;;8.73;;
15159;SDS011;7680;48.800;9.680;2023-04-25T11:38:17;9.47;;;8.57;;
15159;SDS011;7680;48.800;9.680;2023-04-25T11:40:52;11.17;;;10.20;;
15159;SDS011;7680;48.800;9.680;2023-04-25T11:43:26;10.60;;;9.60;;
15159;SDS011;7680;48.800;9.680;2023-04-25T11:45:59;9.80;;;9.00;;
15159;SDS011;7680;48.800;9.680;2023-04-25T11:48:36;9.07;;;8.37;;
15159;SDS011;7680;48.800;9.680;2023-04-25T11:51:10;9.40;;;8.57;;
15159;SDS011;7680;48.800;9.680;2023-04-25T11:53:45;9.30;;;8.50;;
15159;SDS011;7680;48.800;9.680;2023-04-25T11:56:18;9.43;;;8.73;;
15159;SDS011;7680;48.800;9.680;2023-04-25T11:58:56;11.03;;;9.93;;
15159;SDS011;7680;48.800;9.680;2023-04-25T12:01:31;9.07;;;8.17;;
15159;SDS011;7680;48.800;9.680;2023-04-25T12:04:10;8.23;;;7.37;;
15159;SDS011;7680;48.800;9.680;2023-04-25T12:06:45;8.43;;;7.63;;
15159;SDS011;7680;48.800;9.680;2023-04-25T12:09:27;8.43;;;7.67;;
15159;SDS011;7680;48.800;9.680;2023-04-25T12:12:02;9.10;;;8.30;;
15159;SDS011;7680;48.800;9.680;2023-04-25T12:14:36;9.20;;;8.40;;
15159;SDS011;7680;48.800;9.680;2023-04-25T12:17:09;9.63;;;8.67;;
15159;SDS011;7680;48.800;9.680;2023-04-25T12:19:42;10.10;;;9.10;;
15159;SDS011;7680;48.800;9.680;2023-04-25T12:22:19;9.53;;;8.73;;
15159;SDS011;7680;48.800;9.680;2023-04-25T12:24:56;10.20;;;9.27;;
15159;SDS011;7680;48.800;9.680;2023-04-25T12:27:30;10.90;;;9.90;;
15159;SDS011;7680;48.800;9.680;2023-04-25T12:30:06;8.27;;;7.53;;
15159;SDS011;7680;48.800;9.680;2023-04-25T12:32:41;8.73;;;7.93;;
15159;SDS011;7680;48.800;9.680;2023-04-25T12:35:14;8.77;;;7.97;;
15159;SDS011;7680;48.800;9.680;2023-04-25T12:37:48;8.67;;;7.77;;
15159;SDS011;7680;48.800;9.680;2023-04-25T12:40:22;8.33;;;7.67;;
15159;SDS011;7680;48.800;9.680;2023-04-25T12:42:55;8.73;;;8.03;;
15159;SDS011;7680;48.800;9.680;2023-04-25T12:45:28;8.13;;;7.33;;
15159;SDS011;7680;48.800;9.680;2023-04-25T12:48:01;7.27;;;6.77;;
15159;SDS011;7680;48.800;9.680;2023-04-25T12:50:35;7.83;;;7.23;;
15159;SDS011;7680;48.800;9.680;2023-04-25T12:53:08;8.00;;;7.30;;
15159;SDS011;7680;48.800;9.680;2023-04-25T12:55:42;7.93;;;7.32;;
15159;SDS011;7680;48.800;9.680;2023-04-25T12:58:17;8.30;;;7.60;;
15159;SDS011;7680;48.800;9.680;2023-04-25T13:00:52;7.00;;;6.47;;
15159;SDS011;7680;48.800;9.680;2023-04-25T13:03:25;7.27;;;6.57;;
15159;SDS011;7680;48.800;9.680;2023-04-25T13:05:58;8.67;;;7.97;;
15159;SDS011;7680;48.800;9.680;2023-04-25T13:08:31;7.87;;;7.20;;
15159;SDS011;7680;48.800;9.680;2023-04-25T13:11:07;8.20;;;7.60;;
15159;SDS011;7680;48.800;9.680;2023-04-25T13:13:41;8.23;;;7.60;;
15159;SDS011;7680;48.800;9.680;2023-04-25T13:16:14;8.20;;;7.57;;
15159;SDS011;7680;48.800;9.680;2023-04-25T13:18:47;9.47;;;8.67;;
15159;SDS011;7680;48.800;9.680;2023-04-25T13:21:21;8.33;;;7.53;;
15159;SDS011;7680;48.800;9.680;2023-04-25T13:23:54;8.20;;;7.50;;
15159;SDS011;7680;48.800;9.680;2023-04-25T13:26:28;7.78;;;7.15;;
15159;SDS011;7680;48.800;9.680;2023-04-25T13:29:01;13.27;;;11.88;;
15159;SDS011;7680;48.800;9.680;2023-04-25T13:31:35;13.98;;;11.55;;
15159;SDS011;7680;48.800;9.680;2023-04-25T13:34:08;8.23;;;7.40;;
15159;SDS011;7680;48.800;9.680;2023-04-25T13:36:41;26.02;;;20.42;;
15159;SDS011;7680;48.800;9.680;2023-04-25T13:39:14;13.80;;;12.45;;
15159;SDS011;7680;48.800;9.680;2023-04-25T13:41:48;14.07;;;12.68;;
15159;SDS011;7680;48.800;9.680;2023-04-25T13:44:22;7.85;;;7.25;;
15159;SDS011;7680;48.800;9.680;2023-04-25T13:46:55;7.32;;;6.70;;
15159;SDS011;7680;48.800;9.680;2023-04-25T13:49:28;10.57;;;9.48;;
15159;SDS011;7680;48.800;9.680;2023-04-25T13:52:01;12.48;;;11.27;;
15159;SDS011;7680;48.800;9.680;2023-04-25T13:54:34;13.50;;;12.30;;
15159;SDS011;7680;48.800;9.680;2023-04-25T13:57:08;15.70;;;14.20;;
15159;SDS011;7680;48.800;9.680;2023-04-25T13:59:42;10.50;;;9.68;;
15159;SDS011;7680;48.800;9.680;2023-04-25T14:02:15;10.82;;;9.82;;
15159;SDS011;7680;48.800;9.680;2023-04-25T14:04:49;7.75;;;7.15;;
15159;SDS011;7680;48.800;9.680;2023-04-25T14:07:22;6.95;;;6.32;;
15159;SDS011;7680;48.800;9.680;2023-04-25T14:09:55;8.02;;;7.35;;
15159;SDS011;7680;48.800;9.680;2023-04-25T14:12:30;7.20;;;6.60;;
15159;SDS011;7680;48.800;9.680;2023-04-25T14:15:03;7.13;;;6.43;;
15159;SDS011;7680;48.800;9.680;2023-04-25T14:17:38;7.68;;;6.97;;
15159;SDS011;7680;48.800;9.680;2023-04-25T14:20:11;8.50;;;7.80;;
15159;SDS011;7680;48.800;9.680;2023-04-25T14:22:44;8.57;;;7.78;;
15159;SDS011;7680;48.800;9.680;2023-04-25T14:25:17;8.13;;;7.40;;
15159;SDS011;7680;48.800;9.680;2023-04-25T14:27:52;8.25;;;7.55;;
15159;SDS011;7680;48.800;9.680;2023-04-25T14:30:25;8.98;;;8.18;;
15159;SDS011;7680;48.800;9.680;2023-04-25T14:32:58;9.43;;;8.73;;
15159;SDS011;7680;48.800;9.680;2023-04-25T14:35:31;8.90;;;8.20;;
15159;SDS011;7680;48.800;9.680;2023-04-25T14:38:04;8.30;;;7.60;;
15159;SDS011;7680;48.800;9.680;2023-04-25T14:40:39;8.75;;;7.90;;
15159;SDS011;7680;48.800;9.680;2023-04-25T14:43:13;8.23;;;7.43;;
15159;SDS011;7680;48.800;9.680;2023-04-25T14:45:46;8.90;;;8.13;;
15159;SDS011;7680;48.800;9.680;2023-04-25T14:48:19;9.07;;;8.27;;
15159;SDS011;7680;48.800;9.680;2023-04-25T14:50:52;9.02;;;8.23;;
15159;SDS011;7680;48.800;9.680;2023-04-25T14:53:26;10.10;;;9.10;;
15159;SDS011;7680;48.800;9.680;2023-04-25T14:55:59;10.55;;;9.45;;
15159;SDS011;7680;48.800;9.680;2023-04-25T14:58:34;10.30;;;9.30;;
15159;SDS011;7680;48.800;9.680;2023-04-25T15:01:07;9.60;;;8.80;;
15159;SDS011;7680;48.800;9.680;2023-04-25T15:03:40;10.13;;;9.25;;
15159;SDS011;7680;48.800;9.680;2023-04-25T15:06:13;10.80;;;9.80;;
15159;SDS011;7680;48.800;9.680;2023-04-25T15:08:47;23.38;;;21.08;;
15159;SDS011;7680;48.800;9.680;2023-04-25T15:11:20;9.68;;;8.68;;
15159;SDS011;7680;48.800;9.680;2023-04-25T15:13:55;9.05;;;8.27;;
15159;SDS011;7680;48.800;9.680;2023-04-25T15:16:28;10.73;;;9.48;;
15159;SDS011;7680;48.800;9.680;2023-04-25T15:19:02;9.80;;;9.00;;
15159;SDS011;7680;48.800;9.680;2023-04-25T15:21:35;9.65;;;8.85;;
15159;SDS011;7680;48.800;9.680;2023-04-25T15:24:08;10.38;;;9.38;;
15159;SDS011;7680;48.800;9.680;2023-04-25T15:26:42;10.70;;;9.63;;
15159;SDS011;7680;48.800;9.680;2023-04-25T15:29:16;10.15;;;9.15;;
15159;SDS011;7680;48.800;9.680;2023-04-25T15:31:50;10.63;;;9.73;;
15159;SDS011;7680;48.800;9.680;2023-04-25T15:34:23;10.70;;;9.60;;
15159;SDS011;7680;48.800;9.680;2023-04-25T15:36:56;11.90;;;10.80;;
15159;SDS011;7680;48.800;9.680;2023-04-25T15:39:30;11.73;;;10.65;;